This is the latest recevied weather packets stored in our database for station/object BMCB-34. If no packets are shown the sender has not sent any weather packets the latest 10 day(s).
| Time | Temp. | Humidity | Pressure | Rain* | Wind** | Luminosity | Snow |
|---|---|---|---|---|---|---|---|
| 1777957824 | 11.67° C | 90% | 1004.5 hPa | 0 mm | - | 38 W/m² | - |
| 1777953637 | 11.67° C | 88% | 1004.5 hPa | 0 mm | - | 0 W/m² | - |
| 1777953031 | 11.67° C | 88% | 1004.6 hPa | 0 mm | - | 0 W/m² | - |
| 1777952430 | 11.67° C | 88% | 1004.6 hPa | 0 mm | - | 0 W/m² | - |
| 1777950626 | 11.67° C | 88% | 1005 hPa | 0 mm | - | 0 W/m² | - |
| 1777950028 | 11.67° C | 88% | 1005 hPa | 0 mm | - | 0 W/m² | - |
| 1777948230 | 11.67° C | 88% | 1005.3 hPa | 0 mm | - | 0 W/m² | - |
| 1777946440 | 11.67° C | 88% | 1005.5 hPa | 0 mm | - | 0 W/m² | - |
| 1777945241 | 11.67° C | 88% | 1005.5 hPa | 0 mm | - | 0 W/m² | - |
| 1777939838 | 11.11° C | 90% | 1006.4 hPa | 0 mm | - | 0 W/m² | - |
| 1777938042 | 10.56° C | 89% | 1006.4 hPa | 0 mm | - | 0 W/m² | - |
| 1777936840 | 11.11° C | 87% | 1006.3 hPa | 0 mm | - | 0 W/m² | - |
| 1777935033 | 12.78° C | 83% | 1006.6 hPa | 0 mm | - | 0 W/m² | - |
| 1777934441 | 12.78° C | 83% | 1006.6 hPa | 0 mm | - | 0 W/m² | - |
| 1777933831 | 13.33° C | 79% | 1006.7 hPa | 0 mm | - | 0 W/m² | - |
| 1777932043 | 13.89° C | 77% | 1006.9 hPa | 0 mm | - | 0 W/m² | - |
| 1777931441 | 13.89° C | 77% | 1006.9 hPa | 0 mm | - | 0 W/m² | - |
| 1777927841 | 14.44° C | 76% | 1007.5 hPa | 0 mm | - | 0 W/m² | - |
| 1777926645 | 13.89° C | 76% | 1007.5 hPa | 0 mm | - | 0 W/m² | - |
| 1777925452 | 14.44° C | 75% | 1007.5 hPa | 0 mm | - | 0 W/m² | - |
| 1777920624 | 15° C | 73% | 1007.1 hPa | 0 mm | - | 10 W/m² | - |
| 1777917628 | 15° C | 71% | 1007.1 hPa | 0 mm | - | 32 W/m² | - |
| 1777914625 | 15.56° C | 68% | 1007.3 hPa | 0 mm | - | 50 W/m² | - |
| 1777913424 | 15.56° C | 69% | 1007.4 hPa | 0 mm | - | 46 W/m² | - |
| 1777911023 | 15.56° C | 71% | 1007.4 hPa | 0 mm | - | 64 W/m² | - |
* Rain latest hour (hover to see other rain measurements)
** Current wind speed in m/s (hover to see current wind gust speed)